createdAt,value
2022-10-14T00:01:22.997Z,60.40
2022-10-14T00:03:51.428Z,59.40
2022-10-14T00:06:26.053Z,62.30
2022-10-14T00:08:55.003Z,59.17
2022-10-14T00:11:31.024Z,58.17
2022-10-14T00:14:06.209Z,58.63
2022-10-14T00:16:40.268Z,60.45
2022-10-14T00:19:11.887Z,58.63
2022-10-14T00:21:42.945Z,58.47
2022-10-14T00:24:16.017Z,59.75
2022-10-14T00:26:43.658Z,58.17
2022-10-14T00:29:21.076Z,59.22
2022-10-14T00:31:48.735Z,59.90
2022-10-14T00:34:16.334Z,59.28
2022-10-14T00:36:44.570Z,61.78
2022-10-14T00:39:16.063Z,60.72
2022-10-14T00:41:43.526Z,58.30
2022-10-14T00:44:13.599Z,60.38
2022-10-14T00:46:45.918Z,62.60
2022-10-14T00:49:27.887Z,62.47
2022-10-14T00:52:05.389Z,65.00
2022-10-14T00:54:48.729Z,64.32
2022-10-14T00:57:16.901Z,62.00
2022-10-14T00:59:44.252Z,60.58
2022-10-14T01:02:11.457Z,58.33
2022-10-14T01:04:41.460Z,60.63
2022-10-14T01:07:48.614Z,58.70
2022-10-14T01:10:55.593Z,56.15
2022-10-14T01:13:37.675Z,59.40
2022-10-14T01:16:39.168Z,57.35
2022-10-14T01:19:50.155Z,57.35
2022-10-14T01:22:37.135Z,55.30
2022-10-14T01:25:28.281Z,54.92
2022-10-14T01:28:24.316Z,56.22
2022-10-14T01:31:11.457Z,59.17
2022-10-14T01:33:44.884Z,56.85
2022-10-14T01:36:29.814Z,55.92
2022-10-14T01:39:27.241Z,55.90
2022-10-14T01:42:10.174Z,56.45
2022-10-14T01:44:46.862Z,56.70
2022-10-14T01:47:19.529Z,55.58
2022-10-14T01:49:58.102Z,54.45
2022-10-14T01:52:34.851Z,55.53
2022-10-14T01:55:16.846Z,55.58
2022-10-14T01:57:45.708Z,54.15
2022-10-14T02:00:15.497Z,52.85
2022-10-14T02:02:43.775Z,54.63
2022-10-14T02:05:31.159Z,54.10
2022-10-14T02:08:36.072Z,54.20
2022-10-14T02:11:19.094Z,58.45
2022-10-14T02:14:28.201Z,59.25
2022-10-14T02:17:27.694Z,59.85
2022-10-14T02:20:29.412Z,57.47
2022-10-14T02:23:25.821Z,54.67
2022-10-14T02:25:57.860Z,53.28
2022-10-14T02:28:29.488Z,51.88
2022-10-14T02:31:09.867Z,51.25
2022-10-14T02:33:44.457Z,53.03
2022-10-14T02:36:17.131Z,52.92
2022-10-14T02:38:46.737Z,53.05
2022-10-14T02:41:20.481Z,55.47
2022-10-14T02:43:48.087Z,60.42
2022-10-14T02:46:15.586Z,62.42
2022-10-14T02:48:42.818Z,62.92
2022-10-14T02:51:10.065Z,67.00
2022-10-14T02:53:38.695Z,71.57
2022-10-14T02:56:09.726Z,66.68
2022-10-14T02:58:37.024Z,72.40
2022-10-14T03:01:05.205Z,66.82
2022-10-14T03:03:33.166Z,66.45
2022-10-14T03:06:00.642Z,68.03
2022-10-14T03:08:28.894Z,66.07
2022-10-14T03:10:57.824Z,65.95
2022-10-14T03:13:27.800Z,62.42
2022-10-14T03:15:55.557Z,62.78
2022-10-14T03:18:24.433Z,61.47
2022-10-14T03:20:58.548Z,58.22
2022-10-14T03:23:32.829Z,61.75
2022-10-14T03:25:59.996Z,62.33
2022-10-14T03:28:34.193Z,62.65
2022-10-14T03:31:13.372Z,60.10
2022-10-14T03:33:53.698Z,60.15
2022-10-14T03:36:21.095Z,58.38
2022-10-14T03:38:53.750Z,60.17
2022-10-14T03:41:31.507Z,57.78
2022-10-14T03:43:59.335Z,56.83
2022-10-14T03:46:27.438Z,55.80
2022-10-14T03:48:55.051Z,55.05
2022-10-14T03:51:22.704Z,55.22
2022-10-14T03:53:50.078Z,54.25
2022-10-14T03:56:24.949Z,54.80
2022-10-14T03:58:53.807Z,55.05
2022-10-14T04:01:22.621Z,52.95
2022-10-14T04:04:07.471Z,55.50
2022-10-14T04:06:36.546Z,57.15
2022-10-14T04:09:05.695Z,58.80
2022-10-14T04:11:37.122Z,59.22
2022-10-14T04:14:09.264Z,59.45
2022-10-14T04:16:49.526Z,59.20
2022-10-14T04:19:17.748Z,59.72
2022-10-14T04:21:45.509Z,59.08
2022-10-14T04:24:12.819Z,58.65
2022-10-14T04:26:52.074Z,56.83
2022-10-14T04:29:30.830Z,57.47
2022-10-14T04:32:04.336Z,57.85
2022-10-14T04:34:31.519Z,60.80
2022-10-14T04:36:58.968Z,60.72
2022-10-14T04:39:42.337Z,61.83
2022-10-14T04:42:09.916Z,62.10
2022-10-14T04:44:37.558Z,59.80
2022-10-14T04:47:05.537Z,58.05
2022-10-14T04:49:33.504Z,58.75
2022-10-14T04:52:08.377Z,59.28
2022-10-14T04:55:05.464Z,57.78
2022-10-14T04:57:36.909Z,58.40
2022-10-14T05:00:06.568Z,59.17
2022-10-14T05:02:54.122Z,58.72
2022-10-14T05:05:27.447Z,60.63
2022-10-14T05:07:57.629Z,56.42
2022-10-14T05:10:31.391Z,57.85
2022-10-14T05:12:59.501Z,56.63
2022-10-14T05:15:31.425Z,56.05
2022-10-14T05:18:05.648Z,55.47
2022-10-14T05:20:59.868Z,54.53
2022-10-14T05:23:39.772Z,55.45
2022-10-14T05:26:10.655Z,54.40
2022-10-14T05:28:39.021Z,52.25
2022-10-14T05:31:06.942Z,53.72
2022-10-14T05:33:39.193Z,53.33
2022-10-14T05:36:07.251Z,54.55
2022-10-14T05:38:35.161Z,52.33
2022-10-14T05:41:04.093Z,50.83
2022-10-14T05:43:33.098Z,53.58
2022-10-14T05:46:02.615Z,54.03
2022-10-14T05:48:34.300Z,53.20
2022-10-14T05:51:03.314Z,54.85
2022-10-14T05:53:32.770Z,55.30
2022-10-14T06:01:13.437Z,53.42
2022-10-14T06:03:43.080Z,60.47
2022-10-14T06:06:14.533Z,69.95
2022-10-14T06:08:42.726Z,66.82
2022-10-14T06:11:09.953Z,67.25
2022-10-14T06:13:37.462Z,65.63
2022-10-14T06:16:10.129Z,58.30
2022-10-14T06:18:38.649Z,58.80
2022-10-14T06:21:07.379Z,56.33
2022-10-14T06:23:35.118Z,55.33
2022-10-14T06:26:09.678Z,69.85
2022-10-14T06:28:37.772Z,50.53
2022-10-14T06:31:06.017Z,48.97
2022-10-14T06:33:34.051Z,51.95
2022-10-14T06:36:06.944Z,48.78
2022-10-14T06:38:34.226Z,45.75
2022-10-14T06:41:01.601Z,50.03
2022-10-14T06:43:28.899Z,47.50
2022-10-14T06:45:58.401Z,47.95
2022-10-14T06:48:25.769Z,49.75
2022-10-14T06:50:53.166Z,47.13
2022-10-14T06:53:20.980Z,49.33
2022-10-14T06:55:48.225Z,50.75
2022-10-14T06:58:15.357Z,50.05
2022-10-14T07:00:47.810Z,50.08
2022-10-14T07:03:15.493Z,51.08
2022-10-14T07:05:42.601Z,51.85
2022-10-14T07:08:12.787Z,49.40
2022-10-14T07:10:42.677Z,68.47
2022-10-14T07:13:10.017Z,50.53
2022-10-14T07:15:39.238Z,50.42
2022-10-14T07:18:07.976Z,51.55
2022-10-14T07:20:35.252Z,52.17
2022-10-14T07:23:02.414Z,48.03
2022-10-14T07:25:29.544Z,49.17
2022-10-14T07:27:56.823Z,48.75
2022-10-14T07:30:24.120Z,50.50
2022-10-14T07:32:51.381Z,50.45
2022-10-14T07:35:21.660Z,49.95
2022-10-14T07:37:50.403Z,50.78
2022-10-14T07:40:17.846Z,51.33
2022-10-14T07:42:45.162Z,50.90
2022-10-14T07:45:16.246Z,50.08
2022-10-14T07:47:47.561Z,49.80
2022-10-14T07:50:14.790Z,50.15
2022-10-14T07:52:42.108Z,50.88
2022-10-14T07:55:09.706Z,49.25
2022-10-14T07:57:36.901Z,50.85
2022-10-14T08:00:05.363Z,49.72
2022-10-14T08:02:39.245Z,50.25
2022-10-14T08:07:54.100Z,51.20
2022-10-14T08:10:21.312Z,55.72
2022-10-14T08:12:48.512Z,57.58
2022-10-14T08:15:15.896Z,63.13
2022-10-14T08:17:43.143Z,64.28
2022-10-14T08:20:10.559Z,65.30
2022-10-14T08:22:37.793Z,65.30
2022-10-14T08:25:05.735Z,65.63
2022-10-14T08:27:33.072Z,60.17
2022-10-14T08:30:00.185Z,62.95
2022-10-14T08:32:29.664Z,60.70
2022-10-14T08:34:56.917Z,60.15
2022-10-14T08:37:24.222Z,62.90
2022-10-14T08:39:51.359Z,60.67
2022-10-14T08:42:45.963Z,62.42
2022-10-14T08:45:39.503Z,60.33
2022-10-14T08:48:20.356Z,57.78
2022-10-14T08:51:12.970Z,57.58
2022-10-14T08:53:56.731Z,59.03
2022-10-14T08:56:24.950Z,61.58
2022-10-14T08:58:55.967Z,62.05
2022-10-14T09:01:26.931Z,61.72
2022-10-14T09:04:13.919Z,62.78
2022-10-14T09:06:47.033Z,63.92
2022-10-14T09:09:45.503Z,62.58
2022-10-14T09:12:28.834Z,62.60
2022-10-14T09:15:28.306Z,65.13
2022-10-14T09:18:26.314Z,65.13
2022-10-14T09:20:55.444Z,65.47
2022-10-14T09:23:27.557Z,65.30
2022-10-14T09:26:19.825Z,65.00
2022-10-14T09:28:49.711Z,64.18
2022-10-14T09:31:16.906Z,66.45
2022-10-14T09:33:45.154Z,61.22
2022-10-14T09:36:21.861Z,61.55
2022-10-14T09:38:53.158Z,66.78
2022-10-14T09:41:30.488Z,62.75
2022-10-14T09:44:25.173Z,62.05
2022-10-14T09:46:58.429Z,64.35
2022-10-14T09:49:40.329Z,63.13
2022-10-14T09:52:20.576Z,64.30
2022-10-14T09:54:58.742Z,62.95
2022-10-14T09:57:27.326Z,62.95
2022-10-14T10:00:03.929Z,63.05
2022-10-14T10:02:43.597Z,62.03
2022-10-14T10:05:34.753Z,62.78
2022-10-14T10:08:13.526Z,63.33
2022-10-14T10:10:41.138Z,64.00
2022-10-14T10:13:23.384Z,63.08
2022-10-14T10:15:59.983Z,62.25
2022-10-14T10:18:27.738Z,64.05
2022-10-14T10:21:07.676Z,58.78
2022-10-14T10:23:36.461Z,59.70
2022-10-14T10:26:34.517Z,57.28
2022-10-14T10:29:05.499Z,59.80
2022-10-14T10:31:53.627Z,59.08
2022-10-14T10:34:38.075Z,59.03
2022-10-14T10:37:27.209Z,60.33
2022-10-14T10:40:35.953Z,51.90
2022-10-14T10:43:50.394Z,51.53
2022-10-14T10:46:51.594Z,56.22
2022-10-14T10:49:50.148Z,52.40
2022-10-14T10:53:16.789Z,54.47
2022-10-14T10:56:04.393Z,48.50
2022-10-14T10:59:33.462Z,52.13
2022-10-14T11:02:12.399Z,49.22
2022-10-14T11:05:22.014Z,51.35
2022-10-14T11:08:55.287Z,49.45
2022-10-14T11:12:01.632Z,52.97
2022-10-14T11:15:09.711Z,50.40
2022-10-14T11:18:02.604Z,45.92
2022-10-14T11:21:13.877Z,46.55
2022-10-14T11:23:59.620Z,49.70
2022-10-14T11:27:09.533Z,45.78
2022-10-14T11:30:18.574Z,46.97
2022-10-14T11:33:39.729Z,49.58
2022-10-14T11:36:31.565Z,46.72
2022-10-14T11:39:12.603Z,48.65
2022-10-14T11:42:13.662Z,46.83
2022-10-14T11:44:43.542Z,47.58
2022-10-14T11:47:19.770Z,47.75
2022-10-14T11:50:29.670Z,47.72
2022-10-14T11:53:13.215Z,47.10
2022-10-14T11:55:50.602Z,46.67
2022-10-14T11:58:25.601Z,44.08
2022-10-14T12:01:15.096Z,44.60
2022-10-14T12:03:51.966Z,44.33
2022-10-14T12:06:47.221Z,48.40
2022-10-14T12:09:28.324Z,43.58
2022-10-14T12:12:06.891Z,46.70
2022-10-14T12:14:46.725Z,43.15
2022-10-14T12:17:51.220Z,43.83
2022-10-14T12:20:51.634Z,49.67
2022-10-14T12:23:49.549Z,54.05
2022-10-14T12:26:49.054Z,50.47
2022-10-14T12:29:43.796Z,48.28
2022-10-14T12:32:21.986Z,51.45
2022-10-14T12:34:56.524Z,53.38
2022-10-14T12:37:34.840Z,51.80
2022-10-14T12:40:02.637Z,54.30
2022-10-14T12:42:44.046Z,56.80
2022-10-14T12:45:25.172Z,57.75
2022-10-14T12:48:24.079Z,56.72
2022-10-14T12:51:11.046Z,58.60
2022-10-14T12:53:53.014Z,59.67
2022-10-14T12:56:45.015Z,57.78
2022-10-14T12:59:49.136Z,56.15
2022-10-14T13:02:32.385Z,56.95
2022-10-14T13:05:23.068Z,58.03
2022-10-14T13:08:25.710Z,55.33
2022-10-14T13:11:14.859Z,55.50
2022-10-14T13:13:42.135Z,57.10
2022-10-14T13:16:21.564Z,55.65
2022-10-14T13:18:58.300Z,58.28
2022-10-14T13:21:34.674Z,54.95
2022-10-14T13:24:41.657Z,55.63
2022-10-14T13:27:45.857Z,59.95
2022-10-14T13:30:34.769Z,56.97
2022-10-14T13:33:21.800Z,56.60
2022-10-14T13:36:14.101Z,55.22
2022-10-14T13:38:53.040Z,55.17
2022-10-14T13:41:30.918Z,55.10
2022-10-14T13:44:00.846Z,54.47
2022-10-14T13:46:39.662Z,53.92
2022-10-14T13:49:17.779Z,52.88
2022-10-14T13:51:59.809Z,54.58
2022-10-14T13:54:32.566Z,53.10
2022-10-14T13:57:38.741Z,51.40
2022-10-14T14:02:53.349Z,53.03
2022-10-14T14:11:23.102Z,52.53
2022-10-14T14:14:12.544Z,51.25
2022-10-14T14:16:56.177Z,51.33
2022-10-14T14:19:36.302Z,50.67
2022-10-14T14:22:24.344Z,50.58
2022-10-14T14:24:52.485Z,51.97
2022-10-14T14:27:26.579Z,50.42
2022-10-14T14:29:55.161Z,50.10
2022-10-14T14:32:31.564Z,51.47
2022-10-14T14:35:00.234Z,49.88
2022-10-14T14:37:52.883Z,50.85
2022-10-14T14:40:31.094Z,49.25
2022-10-14T14:43:04.599Z,50.25
2022-10-14T14:45:42.538Z,49.20
2022-10-14T14:48:13.493Z,50.17
2022-10-14T14:50:44.427Z,51.42
2022-10-14T14:53:22.067Z,50.65
2022-10-14T14:56:10.537Z,47.42
2022-10-14T14:58:52.991Z,49.10
2022-10-14T15:01:30.865Z,51.50
2022-10-14T15:04:11.970Z,46.85
2022-10-14T15:06:50.942Z,51.03
2022-10-14T15:09:55.953Z,47.10
2022-10-14T15:12:26.496Z,48.20
2022-10-14T15:15:00.502Z,47.10
2022-10-14T15:17:47.577Z,47.55
2022-10-14T15:22:51.707Z,46.25
2022-10-14T15:28:05.383Z,47.40
2022-10-14T15:30:39.626Z,47.30
2022-10-14T15:33:23.129Z,48.65
2022-10-14T15:36:04.479Z,47.72
2022-10-14T15:41:05.655Z,47.30
2022-10-14T15:43:34.673Z,44.50
2022-10-14T15:46:20.682Z,49.45
2022-10-14T15:48:54.905Z,47.92
2022-10-14T15:51:24.331Z,47.13
2022-10-14T15:53:51.911Z,47.47
2022-10-14T15:56:20.927Z,48.05
2022-10-14T15:58:49.055Z,46.08
2022-10-14T16:01:21.917Z,44.70
2022-10-14T16:03:52.252Z,45.15
2022-10-14T16:06:22.423Z,45.40
2022-10-14T16:08:49.653Z,46.92
2022-10-14T16:11:28.770Z,49.22
2022-10-14T16:13:56.680Z,48.15
2022-10-14T16:16:43.048Z,45.60
2022-10-14T16:19:11.497Z,47.17
2022-10-14T16:21:40.224Z,46.35
2022-10-14T16:24:16.026Z,45.85
2022-10-14T16:26:43.302Z,47.38
2022-10-14T16:29:11.856Z,48.88
2022-10-14T16:31:39.268Z,48.42
2022-10-14T16:34:06.611Z,48.67
2022-10-14T16:36:33.897Z,47.38
2022-10-14T16:39:03.615Z,47.78
2022-10-14T16:41:31.187Z,46.42
2022-10-14T16:43:58.416Z,45.50
2022-10-14T16:46:45.674Z,47.25
2022-10-14T16:49:12.909Z,47.13
2022-10-14T16:51:42.430Z,47.55
2022-10-14T16:54:11.274Z,46.42
2022-10-14T16:56:53.838Z,47.40
2022-10-14T16:59:22.958Z,47.42
2022-10-14T17:01:51.706Z,48.47
2022-10-14T17:04:23.113Z,49.05
2022-10-14T17:06:58.565Z,47.50
2022-10-14T17:09:26.025Z,47.53
2022-10-14T17:11:54.783Z,47.45
2022-10-14T17:14:23.985Z,49.88
2022-10-14T17:16:53.954Z,48.08
2022-10-14T17:19:21.720Z,52.50
2022-10-14T17:21:49.030Z,56.05
2022-10-14T17:24:16.910Z,51.13
2022-10-14T17:26:47.681Z,49.33
2022-10-14T17:29:14.968Z,49.67
2022-10-14T17:31:44.886Z,48.92
2022-10-14T17:34:12.153Z,49.55
2022-10-14T17:36:41.438Z,49.10
2022-10-14T17:39:18.692Z,50.40
2022-10-14T17:41:52.522Z,49.22
2022-10-14T17:44:19.757Z,49.60
2022-10-14T17:46:47.043Z,49.55
2022-10-14T17:49:14.977Z,49.03
2022-10-14T17:51:42.573Z,48.38
2022-10-14T17:54:12.309Z,48.55
2022-10-14T17:56:40.881Z,47.00
2022-10-14T17:59:13.882Z,50.28
2022-10-14T18:02:01.528Z,50.05
2022-10-14T18:04:28.597Z,52.95
2022-10-14T18:06:56.124Z,51.60
2022-10-14T18:09:23.426Z,50.63
2022-10-14T18:14:40.611Z,51.58
2022-10-14T18:17:12.255Z,53.45
2022-10-14T18:19:41.074Z,52.15
2022-10-14T18:22:10.876Z,52.35
2022-10-14T18:24:39.215Z,53.80
2022-10-14T18:27:07.221Z,54.38
2022-10-14T18:29:34.527Z,55.47
2022-10-14T18:32:01.688Z,53.33
2022-10-14T18:34:29.020Z,55.08
2022-10-14T18:36:56.265Z,56.25
2022-10-14T18:39:23.566Z,56.40
2022-10-14T18:41:50.676Z,54.47
2022-10-14T18:44:18.333Z,57.33
2022-10-14T18:46:47.425Z,55.00
2022-10-14T18:49:14.768Z,55.42
2022-10-14T18:51:43.263Z,55.70
2022-10-14T18:54:20.456Z,55.50
2022-10-14T18:56:48.007Z,56.47
2022-10-14T18:59:22.982Z,56.97
2022-10-14T19:01:54.138Z,56.90
2022-10-14T19:04:26.800Z,54.35
2022-10-14T19:06:54.067Z,57.38
2022-10-14T19:09:28.892Z,59.17
2022-10-14T19:11:58.875Z,58.60
2022-10-14T19:14:28.507Z,59.13
2022-10-14T19:16:55.741Z,59.45
2022-10-14T19:19:22.848Z,57.95
2022-10-14T19:21:54.253Z,61.30
2022-10-14T19:24:21.875Z,59.40
2022-10-14T19:26:49.957Z,59.42
2022-10-14T19:29:17.794Z,59.63
2022-10-14T19:31:45.328Z,59.50
2022-10-14T19:34:16.145Z,59.80
2022-10-14T19:36:45.196Z,61.88
2022-10-14T19:39:16.216Z,60.00
2022-10-14T19:41:44.623Z,59.03
2022-10-14T19:44:14.821Z,59.80
2022-10-14T19:46:44.291Z,58.17
2022-10-14T19:49:15.266Z,59.80
2022-10-14T19:51:42.483Z,58.63
2022-10-14T19:54:12.741Z,61.42
2022-10-14T19:56:40.214Z,60.55
2022-10-14T19:59:08.045Z,64.53
2022-10-14T20:01:35.740Z,61.88
2022-10-14T20:04:03.471Z,78.10
2022-10-14T20:06:34.241Z,96.32
2022-10-14T20:09:02.959Z,97.82
2022-10-14T20:11:31.240Z,96.95
2022-10-14T20:13:58.832Z,87.38
2022-10-14T20:16:27.235Z,81.47
2022-10-14T20:18:55.956Z,78.20
2022-10-14T20:21:23.769Z,77.00
2022-10-14T20:23:51.371Z,70.25
2022-10-14T20:26:21.803Z,65.57
2022-10-14T20:28:50.381Z,66.45
2022-10-14T20:31:22.343Z,67.43
2022-10-14T20:33:49.603Z,66.70
2022-10-14T20:36:21.140Z,67.90
2022-10-14T20:38:49.671Z,63.47
2022-10-14T20:41:24.408Z,64.63
2022-10-14T20:43:53.867Z,64.43
2022-10-14T20:46:22.584Z,64.82
2022-10-14T20:48:55.443Z,66.63
2022-10-14T20:51:23.663Z,64.75
2022-10-14T20:54:01.629Z,65.65
2022-10-14T20:56:33.458Z,62.92
2022-10-14T20:59:05.902Z,63.80
2022-10-14T21:01:35.204Z,67.22
2022-10-14T21:04:07.144Z,70.03
2022-10-14T21:06:35.610Z,67.72
2022-10-14T21:09:03.824Z,67.60
2022-10-14T21:11:31.223Z,68.32
2022-10-14T21:14:00.508Z,65.63
2022-10-14T21:16:35.748Z,66.82
2022-10-14T21:19:09.882Z,67.13
2022-10-14T21:21:45.290Z,64.82
2022-10-14T21:24:18.114Z,69.85
2022-10-14T21:26:50.602Z,67.32
2022-10-14T21:29:20.496Z,69.18
2022-10-14T21:31:49.473Z,67.72
2022-10-14T21:34:16.789Z,69.80
2022-10-14T21:36:44.759Z,68.28
2022-10-14T21:39:16.339Z,66.88
2022-10-14T21:41:44.452Z,68.65
2022-10-14T21:44:17.840Z,66.32
2022-10-14T21:46:45.437Z,67.55
2022-10-14T21:49:13.379Z,67.10
2022-10-14T21:51:41.158Z,65.68
2022-10-14T21:54:10.898Z,67.53
2022-10-14T21:56:38.856Z,68.30
2022-10-14T21:59:06.854Z,69.00
2022-10-14T22:01:34.659Z,69.70
2022-10-14T22:04:05.864Z,69.20
2022-10-14T22:06:35.418Z,71.57
2022-10-14T22:09:07.027Z,70.78
2022-10-14T22:11:41.155Z,70.57
2022-10-14T22:14:14.893Z,72.10
2022-10-14T22:16:42.202Z,74.97
2022-10-14T22:19:12.478Z,74.55
2022-10-14T22:21:43.068Z,74.72
2022-10-14T22:24:13.073Z,74.85
2022-10-14T22:26:41.011Z,73.28
2022-10-14T22:29:17.600Z,69.43
2022-10-14T22:31:45.990Z,74.05
2022-10-14T22:34:17.572Z,75.03
2022-10-14T22:36:45.705Z,74.50
2022-10-14T22:39:16.268Z,74.40
2022-10-14T22:41:43.684Z,75.63
2022-10-14T22:44:11.623Z,79.63
2022-10-14T22:46:40.319Z,78.05
2022-10-14T22:49:07.946Z,77.30
2022-10-14T22:51:42.821Z,82.72
2022-10-14T22:54:11.056Z,78.10
2022-10-14T22:56:38.805Z,84.13
2022-10-14T22:59:11.707Z,84.35
2022-10-14T23:01:42.051Z,83.53
2022-10-14T23:04:10.981Z,79.40
2022-10-14T23:06:40.408Z,80.10
2022-10-14T23:09:07.597Z,76.72
2022-10-14T23:11:34.790Z,74.88
2022-10-14T23:14:06.263Z,75.10
2022-10-14T23:16:36.050Z,74.57
2022-10-14T23:19:03.372Z,73.13
2022-10-14T23:21:36.424Z,71.88
2022-10-14T23:24:11.435Z,72.28
2022-10-14T23:26:39.026Z,72.22
2022-10-14T23:29:11.465Z,69.85
2022-10-14T23:31:40.778Z,71.72
2022-10-14T23:34:13.089Z,71.20
2022-10-14T23:36:40.905Z,70.30
2022-10-14T23:39:08.597Z,68.15
2022-10-14T23:41:35.836Z,68.78
2022-10-14T23:44:03.240Z,66.57
2022-10-14T23:46:30.729Z,67.03
2022-10-14T23:49:07.541Z,66.97
2022-10-14T23:51:45.190Z,67.63
2022-10-14T23:54:12.542Z,65.43
2022-10-14T23:56:39.935Z,65.65
2022-10-14T23:59:07.164Z,64.80
